createdAt,value
2018-12-14T01:04:09.060Z,2.43
2018-12-14T01:09:12.388Z,2.50
2018-12-14T01:14:15.733Z,2.25
2018-12-14T01:19:19.841Z,2.25
2018-12-14T01:24:23.171Z,2.28
2018-12-14T01:29:27.266Z,2.18
2018-12-14T02:31:33.445Z,1.85
2018-12-14T02:36:36.804Z,1.85
2018-12-14T02:41:40.141Z,1.85
2018-12-14T02:46:44.261Z,1.90
2018-12-14T02:51:47.606Z,2.07
2018-12-14T02:56:50.941Z,1.92
2018-12-14T04:05:19.848Z,1.96
2018-12-14T04:10:23.192Z,2.18
2018-12-14T04:15:26.529Z,2.06
2018-12-14T04:20:30.636Z,1.99
2018-12-14T04:25:33.968Z,1.98
2018-12-14T04:30:38.077Z,2.03
2018-12-14T05:32:46.727Z,1.72
2018-12-14T05:37:50.256Z,2.02
2018-12-14T05:42:53.595Z,1.96
2018-12-14T05:47:56.933Z,2.06
2018-12-14T05:53:00.275Z,1.91
2018-12-14T05:58:03.697Z,1.95
2018-12-14T07:06:20.013Z,2.18
2018-12-14T07:11:24.133Z,2.26
2018-12-14T07:16:27.476Z,2.23
2018-12-14T07:21:30.819Z,2.20
2018-12-14T07:26:34.163Z,2.26
2018-12-14T08:35:00.426Z,2.34
2018-12-14T08:40:03.769Z,2.11
2018-12-14T08:45:07.107Z,2.10
2018-12-14T08:50:10.525Z,2.22
2018-12-14T08:55:13.868Z,2.27
2018-12-14T09:00:17.211Z,2.30
2018-12-14T10:02:26.304Z,2.33
2018-12-14T10:07:29.643Z,2.26
2018-12-14T10:12:33.731Z,2.31
2018-12-14T10:17:37.240Z,2.39
2018-12-14T10:22:41.598Z,2.30
2018-12-14T10:27:43.973Z,2.29
2018-12-14T11:30:53.947Z,2.32
2018-12-14T11:35:57.305Z,2.41
2018-12-14T11:41:00.656Z,2.27
2018-12-14T11:46:04.760Z,2.34
2018-12-14T11:51:08.110Z,2.36
2018-12-14T11:56:11.440Z,2.21
2018-12-14T13:04:39.373Z,2.55
2018-12-14T13:09:42.711Z,2.59
2018-12-14T13:14:46.049Z,2.52
2018-12-14T13:19:50.152Z,2.32
2018-12-14T13:24:53.501Z,2.46
2018-12-14T13:29:56.853Z,2.53
2018-12-14T14:32:05.101Z,2.13
2018-12-14T14:37:08.480Z,2.23
2018-12-14T14:42:11.824Z,2.32
2018-12-14T14:47:15.169Z,2.23
2018-12-14T14:52:18.502Z,2.24
2018-12-14T14:57:23.328Z,2.18
2018-12-14T16:00:27.033Z,2.18
2018-12-14T16:05:32.316Z,2.11
2018-12-14T16:10:35.285Z,2.17
2018-12-14T16:15:38.635Z,2.15
2018-12-14T16:20:41.978Z,2.30
2018-12-14T16:25:45.321Z,2.37
2018-12-14T16:30:49.705Z,2.42
2018-12-14T16:35:53.869Z,2.22
2018-12-14T16:40:57.195Z,2.25
2018-12-14T16:46:00.519Z,2.23
2018-12-14T16:51:04.616Z,2.23
2018-12-14T16:56:07.944Z,2.25
2018-12-14T17:01:12.048Z,2.23
2018-12-14T17:06:15.389Z,2.13
2018-12-14T17:11:19.487Z,2.17
2018-12-14T17:16:22.810Z,2.15
2018-12-14T17:21:26.765Z,2.17
2018-12-14T17:26:36.365Z,2.18
2018-12-14T17:31:39.717Z,2.18
2018-12-14T17:36:43.817Z,2.15
2018-12-14T17:41:47.154Z,2.11
2018-12-14T17:46:51.248Z,2.20
2018-12-14T17:51:54.595Z,2.29
2018-12-14T17:56:58.695Z,2.30
2018-12-14T18:02:02.817Z,2.25
2018-12-14T18:07:06.160Z,2.13
2018-12-14T18:12:09.495Z,2.17
2018-12-14T18:17:13.600Z,2.27
2018-12-14T18:22:16.944Z,2.25
2018-12-14T18:27:20.279Z,2.28
2018-12-14T18:32:23.622Z,2.35
2018-12-14T18:37:26.971Z,2.34
2018-12-14T18:42:30.325Z,2.27
2018-12-14T18:47:33.666Z,2.35
2018-12-14T18:52:37.793Z,2.34
2018-12-14T18:57:41.893Z,2.36
2018-12-14T19:02:45.239Z,2.41
2018-12-14T19:07:52.192Z,2.47
2018-12-14T19:13:01.553Z,2.47
2018-12-14T19:18:06.929Z,2.47
2018-12-14T19:23:19.723Z,2.47
2018-12-14T19:28:22.216Z,2.48
2018-12-14T19:33:35.424Z,2.36
2018-12-14T19:38:38.913Z,2.47
2018-12-14T19:43:42.265Z,2.34
2018-12-14T19:48:54.283Z,2.36
2018-12-14T19:53:58.504Z,2.44
2018-12-14T19:59:01.866Z,2.44
2018-12-14T20:04:05.383Z,2.43
2018-12-14T20:09:09.625Z,2.36
2018-12-14T20:14:12.978Z,2.43
2018-12-14T20:19:16.349Z,2.37
2018-12-14T20:24:20.450Z,2.45
2018-12-14T20:29:23.822Z,2.49
2018-12-14T20:34:27.159Z,2.39
2018-12-14T20:39:30.508Z,2.28
2018-12-14T20:44:33.852Z,2.40
2018-12-14T20:49:37.222Z,2.42
2018-12-14T21:00:07.809Z,2.49
2018-12-14T21:05:22.568Z,2.55
2018-12-14T21:10:43.465Z,2.51
2018-12-14T21:15:48.744Z,2.45
2018-12-14T21:20:52.097Z,2.41
2018-12-14T21:25:55.445Z,2.41
2018-12-14T21:30:58.793Z,2.46
2018-12-14T21:36:02.136Z,2.44
2018-12-14T21:41:05.477Z,2.35
2018-12-14T21:46:08.821Z,2.35
2018-12-14T21:51:15.912Z,2.42
2018-12-14T21:56:19.268Z,2.48
2018-12-14T22:01:46.985Z,2.41
2018-12-14T22:06:50.336Z,2.12
2018-12-14T22:11:53.855Z,2.22
2018-12-14T22:16:58.982Z,2.21
2018-12-14T22:22:02.327Z,2.31
2018-12-14T22:27:06.309Z,2.33
2018-12-14T22:32:09.655Z,2.34
2018-12-14T22:37:13.756Z,2.38
2018-12-14T22:42:17.115Z,2.32
2018-12-14T22:47:20.461Z,2.35
2018-12-14T22:52:23.820Z,2.37
2018-12-14T22:57:27.941Z,2.41
2018-12-14T23:34:12.082Z,2.32
2018-12-14T23:39:15.409Z,2.27
2018-12-14T23:44:18.758Z,2.27
2018-12-14T23:49:22.093Z,2.16
2018-12-14T23:54:26.189Z,2.15
2018-12-14T23:59:29.527Z,2.01
